Time;durP1;ratioP1;P1;durP2;ratioP2;P2;SDS_P1;SDS_P2;PMS_P1;PMS_P2;Temp;Humidity;BMP_temperature;BMP_pressure;BME280_temperature;BME280_humidity;BME280_pressure;Samples;Min_cycle;Max_cycle;Signal;HPM_P1;HPM_P2
2022/08/20 00:01:41;;;;;;;2.25;1.20;;;27.30;55.00;;;;;;5025979;28;21441;-53
2022/08/20 00:04:07;;;;;;;1.80;1.00;;;27.30;55.00;;;;;;5021953;28;20034;-57
2022/08/20 00:06:33;;;;;;;2.10;1.23;;;27.30;55.00;;;;;;5024203;28;20053;-55
2022/08/20 00:08:59;;;;;;;3.47;1.15;;;27.30;55.10;;;;;;5017231;28;20080;-57
2022/08/20 00:11:26;;;;;;;2.03;1.30;;;27.30;55.10;;;;;;5022536;28;20037;-57
2022/08/20 00:13:57;;;;;;;1.85;1.17;;;27.30;55.10;;;;;;5025653;28;20028;-57
2022/08/20 00:16:25;;;;;;;0.93;0.90;;;27.30;55.20;;;;;;5028160;28;20033;-56
2022/08/20 00:18:52;;;;;;;1.67;1.15;;;27.20;55.10;;;;;;5025322;28;20038;-55
2022/08/20 00:21:19;;;;;;;1.55;1.13;;;27.20;55.10;;;;;;5025207;28;20476;-55
2022/08/20 00:23:48;;;;;;;1.25;1.10;;;27.20;55.10;;;;;;5024925;28;20041;-56
2022/08/20 00:26:16;;;;;;;1.35;1.02;;;27.20;55.20;;;;;;5025082;28;20112;-56
2022/08/20 00:28:42;;;;;;;2.33;1.20;;;27.20;55.20;;;;;;5026108;28;20033;-56
2022/08/20 00:31:10;;;;;;;1.23;1.05;;;27.20;55.20;;;;;;5024203;28;20033;-57
2022/08/20 00:33:37;;;;;;;1.52;0.90;;;27.20;55.20;;;;;;5024490;28;20415;-57
2022/08/20 00:36:09;;;;;;;1.50;1.35;;;27.20;55.30;;;;;;5024685;28;20025;-54
2022/08/20 00:38:39;;;;;;;1.88;1.55;;;27.20;55.30;;;;;;5023481;28;20049;-54
2022/08/20 00:41:07;;;;;;;1.58;1.15;;;27.20;55.30;;;;;;5028760;28;20508;-56
2022/08/20 00:43:35;;;;;;;2.63;1.48;;;27.10;55.30;;;;;;5027458;28;20037;-57
2022/08/20 00:46:07;;;;;;;2.95;1.30;;;27.10;55.40;;;;;;5024477;28;20112;-57
2022/08/20 00:48:36;;;;;;;1.50;1.33;;;27.20;55.40;;;;;;5026613;28;20037;-57
2022/08/20 00:51:16;;;;;;;1.25;1.00;;;27.10;55.40;;;;;;5026176;28;20044;-57
2022/08/20 00:53:43;;;;;;;1.50;0.93;;;27.10;55.40;;;;;;5025682;28;20041;-58
2022/08/20 00:56:11;;;;;;;1.58;1.30;;;27.10;55.50;;;;;;5024877;28;20026;-54
2022/08/20 00:58:38;;;;;;;1.80;1.50;;;27.10;55.50;;;;;;5026128;28;20413;-57
2022/08/20 01:01:06;;;;;;;1.92;1.10;;;27.10;55.50;;;;;;5022660;28;20439;-57
2022/08/20 01:03:32;;;;;;;1.83;1.50;;;27.10;55.60;;;;;;5026384;28;20116;-55
2022/08/20 01:05:59;;;;;;;1.63;1.30;;;27.10;55.60;;;;;;5024400;28;20113;-57
2022/08/20 01:08:25;;;;;;;1.73;1.23;;;27.10;55.60;;;;;;5023030;28;20132;-55
2022/08/20 01:11:06;;;;;;;2.55;1.40;;;27.10;55.60;;;;;;5021753;28;20038;-57
2022/08/20 01:13:34;;;;;;;3.17;1.45;;;27.10;55.70;;;;;;5023170;28;20445;-56
2022/08/20 01:16:03;;;;;;;2.13;1.60;;;27.10;55.80;;;;;;5021204;28;20040;-55
2022/08/20 01:18:30;;;;;;;1.40;1.10;;;27.00;55.80;;;;;;5028337;28;20057;-55
2022/08/20 01:21:02;;;;;;;3.55;1.70;;;27.00;55.90;;;;;;5024434;28;20516;-56
2022/08/20 01:23:36;;;;;;;1.50;1.10;;;27.00;55.90;;;;;;5029145;28;20424;-58
2022/08/20 01:26:13;;;;;;;1.60;1.35;;;27.00;56.00;;;;;;5031592;28;20079;-57
2022/08/20 01:29:00;;;;;;;2.53;1.45;;;27.00;56.00;;;;;;5026217;28;20033;-57
2022/08/20 01:31:31;;;;;;;1.92;1.65;;;27.00;56.10;;;;;;5024800;28;20076;-56
2022/08/20 01:33:59;;;;;;;1.45;1.20;;;27.00;56.10;;;;;;5029074;28;20033;-55
2022/08/20 01:36:47;;;;;;;1.83;1.50;;;27.00;56.20;;;;;;5026288;28;20041;-57
2022/08/20 01:39:19;;;;;;;2.08;1.52;;;27.00;56.80;;;;;;5026380;28;20352;-57
2022/08/20 01:42:03;;;;;;;2.45;1.30;;;27.00;56.30;;;;;;5026935;28;20084;-57
2022/08/20 01:44:30;;;;;;;2.28;1.30;;;27.00;56.30;;;;;;5029997;28;20041;-57
2022/08/20 01:47:11;;;;;;;1.88;1.27;;;27.00;56.30;;;;;;5021627;28;20040;-55
2022/08/20 01:49:42;;;;;;;1.42;1.25;;;26.90;56.30;;;;;;5029324;28;20037;-56
2022/08/20 01:52:16;;;;;;;1.90;1.33;;;26.90;56.30;;;;;;5023794;28;20048;-56
2022/08/20 01:54:42;;;;;;;1.25;1.15;;;26.90;56.30;;;;;;5025170;28;20076;-57
2022/08/20 01:57:14;;;;;;;1.20;1.10;;;26.90;56.30;;;;;;5022123;28;20392;-57
2022/08/20 01:59:40;;;;;;;1.75;0.95;;;26.90;56.40;;;;;;5031025;28;20030;-58
2022/08/20 02:02:07;;;;;;;1.27;1.17;;;26.90;56.40;;;;;;5027705;28;20103;-56
2022/08/20 02:04:34;;;;;;;2.13;1.42;;;26.90;56.40;;;;;;5026828;28;20030;-54
2022/08/20 02:07:03;;;;;;;1.60;1.10;;;26.90;56.40;;;;;;5023939;28;20069;-57
2022/08/20 02:09:32;;;;;;;3.20;1.27;;;26.90;56.50;;;;;;5025445;28;20036;-57
2022/08/20 02:11:58;;;;;;;2.80;1.33;;;26.90;56.50;;;;;;5029607;28;20467;-57
2022/08/20 02:14:25;;;;;;;2.40;1.60;;;26.90;56.50;;;;;;5027286;28;20029;-56
2022/08/20 02:16:51;;;;;;;1.70;1.25;;;26.80;56.40;;;;;;5027216;28;20087;-56
2022/08/20 02:19:22;;;;;;;2.00;1.40;;;26.80;56.40;;;;;;5019551;28;20029;-56
2022/08/20 02:21:57;;;;;;;2.08;1.20;;;26.80;56.40;;;;;;5031668;28;20112;-56
2022/08/20 02:24:23;;;;;;;1.23;0.90;;;26.80;56.50;;;;;;5031191;28;20025;-57
2022/08/20 02:26:49;;;;;;;1.88;1.10;;;26.80;56.50;;;;;;5022396;28;20036;-54
2022/08/20 02:29:16;;;;;;;1.45;1.02;;;26.80;56.50;;;;;;5027715;28;20021;-53
2022/08/20 02:31:43;;;;;;;2.17;1.10;;;26.80;56.50;;;;;;5029794;28;20464;-55
2022/08/20 02:34:11;;;;;;;1.83;1.17;;;26.80;56.50;;;;;;5025874;28;20036;-57
2022/08/20 02:36:38;;;;;;;1.48;0.88;;;26.80;56.60;;;;;;5031114;28;20022;-53
2022/08/20 02:39:10;;;;;;;2.67;1.10;;;26.80;56.60;;;;;;5026900;28;20045;-60
2022/08/20 02:41:36;;;;;;;1.75;1.30;;;26.80;56.60;;;;;;5024537;28;20065;-54
2022/08/20 02:44:04;;;;;;;1.30;1.00;;;26.80;56.60;;;;;;5027412;28;20047;-56
2022/08/20 02:46:31;;;;;;;1.50;1.00;;;26.80;56.60;;;;;;5028066;28;20032;-58
2022/08/20 02:48:57;;;;;;;1.27;1.15;;;26.80;56.60;;;;;;5021267;28;20030;-56
2022/08/20 02:51:23;;;;;;;1.25;1.15;;;26.80;56.70;;;;;;5029514;28;20044;-55
2022/08/20 02:53:49;;;;;;;1.20;1.10;;;26.80;57.30;;;;;;5025856;28;20107;-55
2022/08/20 02:56:15;;;;;;;3.15;1.20;;;26.80;56.70;;;;;;5023309;28;20072;-56
2022/08/20 02:58:41;;;;;;;3.03;0.90;;;26.80;56.70;;;;;;5029881;28;20056;-58
2022/08/20 03:01:11;;;;;;;1.45;1.02;;;26.80;56.60;;;;;;5028324;28;20357;-57
2022/08/20 03:03:38;;;;;;;1.55;1.20;;;26.80;56.60;;;;;;5023531;28;20113;-57
2022/08/20 03:06:06;;;;;;;1.83;1.40;;;26.80;56.70;;;;;;5026655;28;20045;-54
2022/08/20 03:08:33;;;;;;;1.20;1.10;;;26.70;56.60;;;;;;5028452;28;20033;-54
2022/08/20 03:10:58;;;;;;;1.75;1.10;;;26.70;56.60;;;;;;5023479;28;20025;-51
2022/08/20 03:13:24;;;;;;;1.35;0.93;;;26.70;56.60;;;;;;5023649;28;20030;-57
2022/08/20 03:15:55;;;;;;;1.23;1.10;;;26.80;56.70;;;;;;5027299;28;20112;-55
2022/08/20 03:18:23;;;;;;;1.83;1.10;;;26.70;56.60;;;;;;5026494;28;20033;-55
2022/08/20 03:20:49;;;;;;;2.05;1.13;;;26.70;56.60;;;;;;5024581;28;20072;-56
2022/08/20 03:23:16;;;;;;;1.38;1.25;;;26.70;56.60;;;;;;5027269;28;20017;-57
2022/08/20 03:25:42;;;;;;;0.95;0.82;;;26.70;56.70;;;;;;5024346;28;20029;-56
2022/08/20 03:28:09;;;;;;;1.80;1.15;;;26.70;56.70;;;;;;5027752;28;20036;-56
2022/08/20 03:30:36;;;;;;;1.70;1.00;;;26.70;56.70;;;;;;5022143;28;20026;-54
2022/08/20 03:33:02;;;;;;;1.45;1.02;;;26.70;56.70;;;;;;5026958;28;20132;-55
2022/08/20 03:35:29;;;;;;;1.45;0.90;;;26.70;56.70;;;;;;5019349;28;20029;-56
2022/08/20 03:37:56;;;;;;;1.38;0.98;;;26.70;56.70;;;;;;5027865;28;20022;-52
2022/08/20 03:40:28;;;;;;;1.45;1.02;;;26.70;56.70;;;;;;5021163;28;20034;-53
2022/08/20 03:42:54;;;;;;;1.15;1.05;;;26.70;56.70;;;;;;5027383;28;20026;-53
2022/08/20 03:45:22;;;;;;;1.63;1.02;;;26.60;56.60;;;;;;5028290;28;20539;-57
2022/08/20 03:47:49;;;;;;;1.67;1.17;;;26.60;56.60;;;;;;5024822;28;20033;-56
2022/08/20 03:50:16;;;;;;;1.52;1.10;;;26.70;56.60;;;;;;5018010;28;20115;-55
2022/08/20 03:52:42;;;;;;;1.40;1.00;;;26.70;56.60;;;;;;5024132;28;20034;-54
2022/08/20 03:55:09;;;;;;;1.88;1.15;;;26.70;56.60;;;;;;5022949;28;20033;-53
2022/08/20 03:57:35;;;;;;;1.92;1.10;;;26.60;56.60;;;;;;5024816;28;20033;-56
2022/08/20 04:00:05;;;;;;;1.10;0.90;;;26.60;56.60;;;;;;5024805;28;20044;-53
2022/08/20 04:02:37;;;;;;;1.17;0.93;;;26.60;56.60;;;;;;5028130;28;21806;-56
2022/08/20 04:05:03;;;;;;;0.98;0.88;;;26.70;56.70;;;;;;5023990;28;20045;-57
2022/08/20 04:07:29;;;;;;;1.98;1.10;;;26.60;56.60;;;;;;5022693;28;20037;-56
2022/08/20 04:09:55;;;;;;;1.45;0.88;;;26.60;56.70;;;;;;5021288;28;20026;-54
2022/08/20 04:12:22;;;;;;;1.25;1.00;;;26.60;56.70;;;;;;5027259;28;20037;-58
2022/08/20 04:14:50;;;;;;;1.58;0.93;;;26.60;56.70;;;;;;5023570;28;20036;-52
2022/08/20 04:17:17;;;;;;;1.42;1.00;;;26.60;56.70;;;;;;5022440;28;20035;-55
2022/08/20 04:19:44;;;;;;;1.67;1.00;;;26.60;56.70;;;;;;5014552;28;20047;-56
2022/08/20 04:22:13;;;;;;;1.33;1.02;;;26.60;56.70;;;;;;5026511;28;20104;-58
2022/08/20 04:24:41;;;;;;;1.58;1.08;;;26.60;56.70;;;;;;5021987;28;20032;-51
2022/08/20 04:27:08;;;;;;;1.17;0.88;;;26.60;56.70;;;;;;5025760;28;20057;-54
2022/08/20 04:29:35;;;;;;;0.98;0.88;;;26.60;56.70;;;;;;5023867;28;20037;-57
2022/08/20 04:32:03;;;;;;;1.08;0.90;;;26.60;56.70;;;;;;5019074;28;20046;-57
2022/08/20 04:34:29;;;;;;;1.67;1.20;;;26.60;56.70;;;;;;5022236;28;20532;-57
2022/08/20 04:36:55;;;;;;;2.42;1.50;;;26.50;56.70;;;;;;5026613;28;20104;-54
2022/08/20 04:39:21;;;;;;;1.50;0.90;;;26.50;56.70;;;;;;5027147;28;20413;-56
2022/08/20 04:41:46;;;;;;;1.50;0.90;;;26.60;56.80;;;;;;5025752;28;20029;-54
2022/08/20 04:44:12;;;;;;;1.00;0.90;;;26.50;56.70;;;;;;5026879;28;20038;-56
2022/08/20 04:46:40;;;;;;;2.08;1.30;;;26.50;56.70;;;;;;5027163;28;20033;-57
2022/08/20 04:49:06;;;;;;;1.60;1.10;;;26.50;56.70;;;;;;5027164;28;20042;-57
2022/08/20 04:51:32;;;;;;;2.53;1.10;;;26.50;56.60;;;;;;5025022;28;20089;-55
2022/08/20 04:53:59;;;;;;;2.25;1.17;;;26.50;56.70;;;;;;5028315;28;20389;-56
2022/08/20 04:56:28;;;;;;;1.38;1.20;;;26.50;56.70;;;;;;5029882;28;20129;-56
2022/08/20 04:58:57;;;;;;;1.50;1.10;;;26.50;56.70;;;;;;5027996;28;20064;-56
2022/08/20 05:01:23;;;;;;;1.70;1.25;;;26.50;56.70;;;;;;5028913;28;20025;-56
2022/08/20 05:03:50;;;;;;;1.48;1.02;;;26.50;56.70;;;;;;5028312;28;20330;-55
2022/08/20 05:06:16;;;;;;;2.13;1.10;;;26.50;56.70;;;;;;5023836;28;20452;-57
2022/08/20 05:08:42;;;;;;;2.50;1.25;;;26.50;56.70;;;;;;5023176;28;20022;-60
2022/08/20 05:11:09;;;;;;;1.95;1.00;;;26.50;56.70;;;;;;5018244;28;20088;-54
2022/08/20 05:13:35;;;;;;;1.35;0.73;;;26.50;56.60;;;;;;5028543;28;20029;-56
2022/08/20 05:16:03;;;;;;;2.10;1.00;;;26.50;56.50;;;;;;5026880;28;20101;-54
2022/08/20 05:18:32;;;;;;;2.58;1.00;;;26.50;56.30;;;;;;5025510;28;20025;-57
2022/08/20 05:21:03;;;;;;;1.65;0.90;;;26.50;56.20;;;;;;5023131;28;20030;-56
2022/08/20 05:23:29;;;;;;;1.35;0.70;;;26.50;56.20;;;;;;5030695;28;20467;-55
2022/08/20 05:25:57;;;;;;;1.88;1.00;;;26.50;56.10;;;;;;5027481;28;20033;-58
2022/08/20 05:28:26;;;;;;;1.55;0.80;;;26.50;56.00;;;;;;5027884;28;20026;-53
2022/08/20 05:30:52;;;;;;;1.75;0.73;;;26.50;56.00;;;;;;5029217;28;20468;-58
2022/08/20 05:33:21;;;;;;;2.58;1.25;;;26.50;56.00;;;;;;5030670;28;20112;-55
2022/08/20 05:35:49;;;;;;;2.13;1.00;;;26.40;56.50;;;;;;5025611;28;20021;-56
2022/08/20 05:38:19;;;;;;;2.35;1.15;;;26.50;55.90;;;;;;5024928;28;20026;-58
2022/08/20 05:40:46;;;;;;;2.05;1.02;;;26.40;55.80;;;;;;5027335;28;20025;-55
2022/08/20 05:43:12;;;;;;;2.08;0.88;;;26.50;55.90;;;;;;5027082;28;20522;-57
2022/08/20 05:45:40;;;;;;;2.47;1.02;;;26.40;55.80;;;;;;5028344;28;20033;-56
2022/08/20 05:48:07;;;;;;;2.55;0.80;;;26.40;55.70;;;;;;5026550;28;20030;-57
2022/08/20 05:50:34;;;;;;;2.88;1.20;;;26.40;55.70;;;;;;5020667;28;20026;-55
2022/08/20 05:53:00;;;;;;;2.33;0.95;;;26.40;55.70;;;;;;5024687;28;20045;-56
2022/08/20 05:55:27;;;;;;;2.20;1.00;;;26.40;55.70;;;;;;5031529;28;20060;-59
2022/08/20 05:58:00;;;;;;;1.75;0.80;;;26.40;55.70;;;;;;5030549;28;20365;-56
2022/08/20 06:00:28;;;;;;;2.55;1.00;;;26.40;55.60;;;;;;5025965;28;20080;-54
2022/08/20 06:05:40;;;;;;;2.70;1.30;;;26.40;55.50;;;;;;5027183;28;20092;-58
2022/08/20 06:08:07;;;;;;;2.00;1.08;;;26.40;55.40;;;;;;5018474;28;20030;-54
2022/08/20 06:10:35;;;;;;;1.98;1.10;;;26.40;55.40;;;;;;5024687;28;20029;-57
2022/08/20 06:13:01;;;;;;;1.83;1.00;;;26.40;55.40;;;;;;5030934;28;20041;-57
2022/08/20 06:15:28;;;;;;;1.80;1.00;;;26.40;55.50;;;;;;5025017;28;20036;-57
2022/08/20 06:17:54;;;;;;;2.22;1.00;;;26.40;55.50;;;;;;5026457;28;20429;-55
2022/08/20 06:20:20;;;;;;;1.83;1.00;;;26.40;55.60;;;;;;5026958;28;20053;-57
2022/08/20 06:22:46;;;;;;;2.20;1.00;;;26.40;55.60;;;;;;5027146;28;20108;-57
2022/08/20 06:25:12;;;;;;;1.45;1.00;;;26.40;55.60;;;;;;5028171;28;20108;-56
2022/08/20 06:27:39;;;;;;;3.10;1.55;;;26.40;55.60;;;;;;5025951;28;20030;-56
2022/08/20 06:30:07;;;;;;;2.28;1.13;;;26.40;56.30;;;;;;5026674;28;20037;-55
2022/08/20 06:32:33;;;;;;;1.20;0.90;;;26.30;55.60;;;;;;5023690;28;20034;-59
2022/08/20 06:35:05;;;;;;;2.13;1.00;;;26.30;55.70;;;;;;5025380;28;20105;-58
2022/08/20 06:37:35;;;;;;;1.88;0.85;;;26.40;55.80;;;;;;5026354;28;20029;-56
2022/08/20 06:40:15;;;;;;;1.20;0.88;;;26.40;55.90;;;;;;5023459;28;20429;-57
2022/08/20 06:42:45;;;;;;;2.10;1.10;;;26.40;55.90;;;;;;5030574;28;20240;-53
2022/08/20 06:45:12;;;;;;;1.80;0.95;;;26.40;55.90;;;;;;5025853;28;20025;-54
2022/08/20 06:47:40;;;;;;;0.98;0.80;;;26.30;55.90;;;;;;5023961;28;20049;-58
2022/08/20 06:50:12;;;;;;;2.33;0.93;;;26.30;55.90;;;;;;5022679;28;20044;-55
2022/08/20 06:52:39;;;;;;;2.33;1.00;;;26.30;56.00;;;;;;5021585;28;20103;-58
2022/08/20 06:55:08;;;;;;;1.45;0.98;;;26.30;56.00;;;;;;5026732;28;20152;-56
2022/08/20 06:57:35;;;;;;;3.15;1.10;;;26.40;56.10;;;;;;5020534;28;20041;-57
2022/08/20 07:00:05;;;;;;;1.77;0.90;;;26.40;56.10;;;;;;5025712;28;20460;-52
2022/08/20 07:02:32;;;;;;;2.08;1.17;;;26.40;56.20;;;;;;5024984;28;20021;-58
2022/08/20 07:04:58;;;;;;;2.28;1.10;;;26.40;56.30;;;;;;5034957;28;20049;-56
2022/08/20 07:07:24;;;;;;;2.63;1.00;;;26.30;56.30;;;;;;5035974;28;20103;-56
2022/08/20 07:09:57;;;;;;;1.75;1.00;;;26.40;56.40;;;;;;5022082;28;20030;-54
2022/08/20 07:12:24;;;;;;;1.15;0.80;;;26.40;56.40;;;;;;5030598;28;20107;-58
2022/08/20 07:14:51;;;;;;;1.88;0.90;;;26.40;56.40;;;;;;5024430;28;20048;-56
2022/08/20 07:17:16;;;;;;;2.35;1.13;;;26.40;56.30;;;;;;5030605;28;20037;-56
2022/08/20 07:19:42;;;;;;;2.13;0.90;;;26.40;56.30;;;;;;5028782;28;20514;-56
2022/08/20 07:22:08;;;;;;;1.48;0.80;;;26.40;56.30;;;;;;5025408;28;20112;-58
2022/08/20 07:24:34;;;;;;;3.30;1.17;;;26.40;56.30;;;;;;5022820;28;20030;-55
2022/08/20 07:27:00;;;;;;;2.67;1.13;;;26.40;56.30;;;;;;5024464;28;20407;-58
2022/08/20 07:32:33;;;;;;;1.45;0.90;;;26.40;56.20;;;;;;5028341;28;20036;-57
2022/08/20 07:34:55;;;;;;;2.00;1.10;;;26.40;55.90;;;;;;5024211;28;20091;-57
2022/08/20 07:37:22;;;;;;;2.33;1.10;;;26.50;55.80;;;;;;5024961;28;20037;-55
2022/08/20 07:39:48;;;;;;;2.15;0.88;;;26.40;55.60;;;;;;5026442;28;20033;-56
2022/08/20 07:42:14;;;;;;;1.80;0.80;;;26.40;55.50;;;;;;5023022;28;20469;-58
2022/08/20 07:44:40;;;;;;;2.05;0.88;;;26.40;55.40;;;;;;5021566;28;20129;-55
2022/08/20 07:47:06;;;;;;;4.47;1.27;;;26.50;55.30;;;;;;5025643;28;20508;-58
2022/08/20 07:49:37;;;;;;;2.58;1.15;;;26.40;55.20;;;;;;5026180;28;20037;-57
2022/08/20 07:52:04;;;;;;;2.75;1.15;;;26.40;55.00;;;;;;5026456;28;20067;-57
2022/08/20 07:54:31;;;;;;;2.65;1.23;;;26.40;54.90;;;;;;5024488;28;20041;-54
2022/08/20 07:57:02;;;;;;;3.55;1.00;;;26.40;54.70;;;;;;5020819;28;20068;-57
2022/08/20 07:59:29;;;;;;;4.40;1.13;;;26.50;54.50;;;;;;5024186;28;20043;-55
2022/08/20 08:01:55;;;;;;;3.05;0.90;;;26.50;54.40;;;;;;5025070;28;20029;-54
2022/08/20 08:04:23;;;;;;;3.60;1.10;;;26.50;55.00;;;;;;5019037;28;20338;-58
2022/08/20 08:06:50;;;;;;;3.90;1.20;;;26.50;54.30;;;;;;5022050;28;20518;-55
2022/08/20 08:09:17;;;;;;;2.53;0.80;;;26.50;54.20;;;;;;5019213;28;20025;-54
2022/08/20 08:11:48;;;;;;;4.57;1.30;;;26.50;54.00;;;;;;5024380;28;20037;-52
2022/08/20 08:14:22;;;;;;;5.40;2.00;;;26.50;53.90;;;;;;5024592;28;20037;-54
2022/08/20 08:16:48;;;;;;;6.75;2.13;;;26.50;53.90;;;;;;5025347;28;20022;-57
2022/08/20 08:19:16;;;;;;;5.97;1.98;;;26.50;53.80;;;;;;5028914;28;20029;-59
2022/08/20 08:21:43;;;;;;;3.80;1.55;;;26.50;53.70;;;;;;5030794;28;20040;-58
2022/08/20 08:24:10;;;;;;;3.80;1.90;;;26.50;53.60;;;;;;5034994;28;20025;-55
2022/08/20 08:26:36;;;;;;;9.73;2.30;;;26.50;53.40;;;;;;5028559;28;20049;-58
2022/08/20 08:29:02;;;;;;;5.22;2.45;;;26.50;53.40;;;;;;5021492;28;20112;-53
2022/08/20 08:31:29;;;;;;;3.80;1.83;;;26.50;53.30;;;;;;5022338;28;20029;-59
2022/08/20 08:33:55;;;;;;;3.10;1.65;;;26.50;53.20;;;;;;5016140;28;20369;-55
2022/08/20 08:36:21;;;;;;;3.60;1.48;;;26.50;53.10;;;;;;5014806;28;20045;-59
2022/08/20 08:38:46;;;;;;;5.05;1.95;;;26.50;53.00;;;;;;5015131;28;20113;-58
2022/08/20 08:41:33;;;;;;;6.45;2.15;;;26.50;52.90;;;;;;5015062;28;20116;-57
2022/08/20 08:44:16;;;;;;;3.40;1.38;;;26.50;52.70;;;;;;5022806;28;20038;-57
2022/08/20 08:46:44;;;;;;;3.53;1.40;;;26.50;52.60;;;;;;5025124;28;20116;-53
2022/08/20 08:49:14;;;;;;;4.50;2.00;;;26.50;52.50;;;;;;5021877;28;20079;-57
2022/08/20 08:51:45;;;;;;;3.80;1.40;;;26.50;52.20;;;;;;5019486;28;20030;-59
2022/08/20 08:54:18;;;;;;;6.78;1.50;;;26.60;52.10;;;;;;5020339;28;20030;-55
2022/08/20 08:56:45;;;;;;;2.60;1.50;;;26.60;51.80;;;;;;5024853;28;20045;-60
2022/08/20 08:59:11;;;;;;;4.68;1.85;;;26.60;51.70;;;;;;5021900;28;20034;-58
2022/08/20 09:01:45;;;;;;;3.75;1.35;;;26.60;51.50;;;;;;5022124;28;20087;-56
2022/08/20 09:04:15;;;;;;;2.70;1.20;;;26.60;51.30;;;;;;5020157;28;20065;-57
2022/08/20 09:06:42;;;;;;;4.25;1.48;;;26.70;51.20;;;;;;5021688;28;20454;-58
2022/08/20 09:09:25;;;;;;;3.20;1.55;;;26.70;51.10;;;;;;5023246;28;20033;-54
2022/08/20 09:11:54;;;;;;;4.97;1.20;;;26.70;50.90;;;;;;5021234;28;20038;-55
2022/08/20 09:14:23;;;;;;;2.65;1.10;;;26.70;50.80;;;;;;5022301;28;20048;-54
2022/08/20 09:16:50;;;;;;;2.30;1.10;;;26.70;50.60;;;;;;5021091;28;20091;-57
2022/08/20 09:19:16;;;;;;;2.28;1.15;;;26.70;50.50;;;;;;5021145;28;20088;-58
2022/08/20 09:21:42;;;;;;;3.92;1.30;;;26.70;50.40;;;;;;5022154;28;20038;-59
2022/08/20 09:24:07;;;;;;;2.15;1.00;;;26.70;50.40;;;;;;5021514;28;20480;-58
2022/08/20 09:26:33;;;;;;;3.45;1.13;;;26.80;50.20;;;;;;5021730;28;20029;-56
2022/08/20 09:28:59;;;;;;;3.63;1.20;;;26.80;50.00;;;;;;5021435;28;20026;-56
2022/08/20 09:31:25;;;;;;;3.03;1.25;;;26.80;50.20;;;;;;5024530;28;20041;-56
2022/08/20 09:33:51;;;;;;;3.33;1.30;;;26.80;50.30;;;;;;5024317;28;20037;-58
2022/08/20 09:36:17;;;;;;;2.88;1.38;;;26.80;50.30;;;;;;5023778;28;20360;-53
2022/08/20 09:38:43;;;;;;;3.13;1.25;;;26.80;50.10;;;;;;5025856;28;20032;-57
2022/08/20 09:41:09;;;;;;;3.75;1.40;;;26.80;49.80;;;;;;5026792;28;20029;-52
2022/08/20 09:43:35;;;;;;;3.92;1.40;;;26.80;49.60;;;;;;5026503;28;20453;-57
2022/08/20 09:46:01;;;;;;;3.17;1.30;;;26.80;49.30;;;;;;5022724;28;20038;-55
2022/08/20 09:48:27;;;;;;;4.22;1.77;;;26.80;49.00;;;;;;5024153;28;20381;-61
2022/08/20 09:50:52;;;;;;;5.75;1.52;;;26.90;48.90;;;;;;5024359;28;20101;-58
2022/08/20 09:53:20;;;;;;;4.35;1.48;;;26.90;48.90;;;;;;5023164;28;20119;-58
2022/08/20 09:55:51;;;;;;;4.55;1.98;;;26.90;48.90;;;;;;5023564;28;20077;-59
2022/08/20 09:58:39;;;;;;;3.08;1.80;;;26.90;48.80;;;;;;5024585;28;20026;-56
2022/08/20 10:01:09;;;;;;;3.95;2.08;;;26.90;48.60;;;;;;5026310;28;20029;-55
2022/08/20 10:03:35;;;;;;;2.92;1.60;;;26.90;48.20;;;;;;5024629;28;20048;-57
2022/08/20 10:06:00;;;;;;;3.35;1.88;;;26.90;48.00;;;;;;5023622;28;20041;-56
2022/08/20 10:08:27;;;;;;;4.10;1.90;;;26.90;47.70;;;;;;5023858;28;20034;-55
2022/08/20 10:10:53;;;;;;;2.88;1.80;;;27.00;47.50;;;;;;5028294;28;20401;-58
2022/08/20 10:13:19;;;;;;;3.15;1.88;;;27.00;47.40;;;;;;5024576;28;20043;-57
2022/08/20 10:15:45;;;;;;;4.40;2.38;;;27.00;47.20;;;;;;5021197;28;20029;-56
2022/08/20 10:18:11;;;;;;;4.93;2.58;;;27.00;47.10;;;;;;5023923;28;20026;-57
2022/08/20 10:20:36;;;;;;;4.45;2.70;;;27.00;47.10;;;;;;5024922;28;20117;-56
2022/08/20 10:23:03;;;;;;;4.53;2.50;;;27.00;47.10;;;;;;5022956;28;20033;-57
2022/08/20 10:25:29;;;;;;;3.70;2.40;;;27.00;47.00;;;;;;5025549;28;20025;-56
2022/08/20 10:27:55;;;;;;;4.90;2.63;;;27.00;46.90;;;;;;5026110;28;20433;-57
2022/08/20 10:30:21;;;;;;;4.78;2.60;;;27.10;46.80;;;;;;5022562;28;20025;-58
2022/08/20 10:32:47;;;;;;;5.65;2.42;;;27.10;46.60;;;;;;5023000;28;20041;-55
2022/08/20 10:35:14;;;;;;;4.78;2.90;;;27.10;46.50;;;;;;5022840;28;20041;-56
2022/08/20 10:37:39;;;;;;;4.90;2.58;;;27.10;46.40;;;;;;5024632;28;20440;-57
2022/08/20 10:40:06;;;;;;;4.28;2.55;;;27.10;46.30;;;;;;5024314;28;20033;-54
2022/08/20 10:42:32;;;;;;;3.95;2.67;;;27.10;46.20;;;;;;5023809;28;20063;-57
2022/08/20 10:44:58;;;;;;;3.55;2.20;;;27.10;46.10;;;;;;5024284;28;20029;-57
2022/08/20 10:47:27;;;;;;;4.40;2.78;;;27.10;45.80;;;;;;5023607;28;20029;-58
2022/08/20 10:49:55;;;;;;;5.30;2.15;;;27.10;45.60;;;;;;5024347;28;20152;-57
2022/08/20 10:52:21;;;;;;;3.78;2.05;;;27.10;45.40;;;;;;5024340;28;20037;-54
2022/08/20 10:54:47;;;;;;;3.58;1.80;;;27.10;45.20;;;;;;5024599;28;20029;-58
2022/08/20 10:57:25;;;;;;;4.15;1.90;;;27.10;45.10;;;;;;5025480;28;20640;-59
2022/08/20 10:59:53;;;;;;;3.95;1.80;;;27.10;45.00;;;;;;5023514;28;20041;-57
2022/08/20 11:02:19;;;;;;;2.78;1.77;;;27.10;44.90;;;;;;5026397;28;20025;-58
2022/08/20 11:04:45;;;;;;;3.75;2.20;;;27.10;44.80;;;;;;5022150;28;20040;-57
2022/08/20 11:07:18;;;;;;;4.88;2.95;;;27.20;45.00;;;;;;5024050;28;20030;-56
2022/08/20 11:09:45;;;;;;;4.22;2.85;;;27.20;45.20;;;;;;5024134;28;20112;-56
2022/08/20 11:12:11;;;;;;;5.63;3.22;;;27.20;45.30;;;;;;5021650;28;20091;-59
2022/08/20 11:14:37;;;;;;;3.97;2.78;;;27.20;45.20;;;;;;5025304;28;20084;-56
2022/08/20 11:17:03;;;;;;;5.40;2.30;;;27.20;45.00;;;;;;5020791;28;20072;-59
2022/08/20 11:19:30;;;;;;;4.88;2.42;;;27.20;44.80;;;;;;5022435;28;20052;-55
2022/08/20 11:22:03;;;;;;;4.45;2.47;;;27.20;44.60;;;;;;5018430;28;20128;-60
2022/08/20 11:24:29;;;;;;;3.95;2.15;;;27.30;44.40;;;;;;5023249;28;20025;-60
2022/08/20 11:26:56;;;;;;;3.85;2.00;;;27.20;44.20;;;;;;5026706;28;20033;-61
2022/08/20 11:29:23;;;;;;;3.28;1.85;;;27.30;44.00;;;;;;5032115;28;20333;-60
2022/08/20 11:31:50;;;;;;;4.15;2.20;;;27.20;43.90;;;;;;5025991;28;20042;-61
2022/08/20 11:34:16;;;;;;;4.93;2.33;;;27.30;44.10;;;;;;5024436;28;20030;-60
2022/08/20 11:36:48;;;;;;;4.00;2.33;;;27.20;44.30;;;;;;5025477;28;20030;-61
2022/08/20 11:39:15;;;;;;;5.88;2.55;;;27.30;44.60;;;;;;5022550;28;20030;-61
2022/08/20 11:41:42;;;;;;;4.20;2.50;;;27.30;44.80;;;;;;5027398;28;20103;-60
2022/08/20 11:44:08;;;;;;;3.00;2.20;;;27.30;44.80;;;;;;5026781;28;20063;-59
2022/08/20 11:46:36;;;;;;;3.53;2.20;;;27.30;44.80;;;;;;5024170;28;20337;-59
2022/08/20 11:49:03;;;;;;;3.63;2.45;;;27.30;44.70;;;;;;5021212;28;20047;-60
2022/08/20 11:51:29;;;;;;;3.67;2.35;;;27.30;44.80;;;;;;5018950;28;20461;-59
2022/08/20 11:53:55;;;;;;;4.38;2.30;;;27.30;44.80;;;;;;5004283;28;21650;-58
2022/08/20 11:56:21;;;;;;;4.35;2.50;;;27.30;44.90;;;;;;5009732;28;20026;-58
2022/08/20 11:58:47;;;;;;;3.08;2.20;;;27.30;44.90;;;;;;5020850;28;20069;-60
2022/08/20 12:01:13;;;;;;;3.50;2.10;;;27.40;44.70;;;;;;5022009;28;20041;-59
2022/08/20 12:03:39;;;;;;;4.28;2.22;;;27.30;44.50;;;;;;5027665;28;20026;-58
2022/08/20 12:06:05;;;;;;;4.78;2.40;;;27.40;44.60;;;;;;5017973;28;20050;-57
2022/08/20 12:08:31;;;;;;;2.75;2.05;;;27.40;44.80;;;;;;5022273;28;20479;-57
2022/08/20 12:10:59;;;;;;;3.75;2.13;;;27.40;44.80;;;;;;5022120;28;20026;-58
2022/08/20 12:13:27;;;;;;;3.85;1.95;;;27.40;44.70;;;;;;5023989;28;20034;-58
2022/08/20 12:15:53;;;;;;;3.85;1.98;;;27.40;44.70;;;;;;5021375;28;20026;-57
2022/08/20 12:18:20;;;;;;;3.03;2.42;;;27.40;44.70;;;;;;5019258;28;20516;-58
2022/08/20 12:20:46;;;;;;;3.55;2.25;;;27.40;44.80;;;;;;5020434;28;20331;-58
2022/08/20 12:23:12;;;;;;;4.68;2.20;;;27.40;44.80;;;;;;5022462;28;20045;-58
2022/08/20 12:25:38;;;;;;;2.40;1.60;;;27.50;44.70;;;;;;5025597;28;20030;-55
2022/08/20 12:28:04;;;;;;;2.97;2.00;;;27.50;44.50;;;;;;5025053;28;20112;-59
2022/08/20 12:30:31;;;;;;;2.25;1.75;;;27.40;44.40;;;;;;5023487;28;20104;-60
2022/08/20 12:32:58;;;;;;;4.15;2.25;;;27.40;44.30;;;;;;5023804;28;20045;-56
2022/08/20 12:35:24;;;;;;;3.58;1.95;;;27.50;44.40;;;;;;5020273;28;20065;-58
2022/08/20 12:37:50;;;;;;;3.08;1.73;;;27.50;44.90;;;;;;5022164;28;20030;-58
2022/08/20 12:40:22;;;;;;;4.18;1.77;;;27.50;44.10;;;;;;5024388;28;20357;-55
2022/08/20 12:42:48;;;;;;;3.58;1.85;;;27.50;43.90;;;;;;5023146;28;20033;-57
2022/08/20 12:45:15;;;;;;;3.38;1.80;;;27.50;44.60;;;;;;5020965;28;20052;-57
2022/08/20 12:47:44;;;;;;;4.93;2.28;;;27.50;44.00;;;;;;5025835;28;20126;-56
2022/08/20 12:50:21;;;;;;;2.78;1.55;;;27.50;44.00;;;;;;5022689;28;20057;-57
2022/08/20 12:52:47;;;;;;;3.53;1.80;;;27.50;44.00;;;;;;5023201;28;20038;-58
2022/08/20 12:55:15;;;;;;;3.17;1.70;;;27.50;43.80;;;;;;5024632;28;20026;-58
2022/08/20 12:57:44;;;;;;;3.53;1.70;;;27.50;43.60;;;;;;5022305;28;20108;-59